CSN6774 ZGGG-ZJHK
Flight info
| Callsign | CSN6774 |
|---|---|
| Flight time | 1h 5m |
| Altitude | 26600 |
| Route | VIBOS9 VIBOS R473 ZUH R200 BIGRO G221 GIVIV W605 DOMGO DOMGO5XA |
| Aircraft | A320/M-SDE3FGHIRWY/LB1 |
Departure
| Time | 2026-05-04 16:46 |
|---|---|
| Airport | Guangzhou Baiyun International Airport (ZGGG) |
Arrival
| Time | 2026-05-04 17:52 |
|---|---|
| Airport | Haikou Meilan International Airport (ZJHK) |
| Time | Latitude | Longitude | Altitude | Speed | Heading |
|---|---|---|---|---|---|
| 2026-05-04 16:26 | 23.40012 | 113.29502 | 59 ft | 0 kts | 179° |
| 2026-05-04 16:35 | 23.40024 | 113.29502 | 53 ft | 4 kts | 179° |
| 2026-05-04 16:36 | 23.40046 | 113.29502 | 50 ft | 4 kts | 193° |
| 2026-05-04 16:36 | 23.40067 | 113.29542 | 51 ft | 4 kts | 282° |
| 2026-05-04 16:37 | 23.40066 | 113.29548 | 52 ft | 0 kts | 284° |
| 2026-05-04 16:40 | 23.40068 | 113.29537 | 54 ft | 7 kts | 284° |
| 2026-05-04 16:40 | 23.40083 | 113.29381 | 53 ft | 12 kts | 253° |
| 2026-05-04 16:41 | 23.40083 | 113.29190 | 54 ft | 15 kts | 219° |
| 2026-05-04 16:41 | 23.39689 | 113.29084 | 57 ft | 25 kts | 193° |
| 2026-05-04 16:42 | 23.39161 | 113.28942 | 57 ft | 26 kts | 194° |
| 2026-05-04 16:43 | 23.38798 | 113.28843 | 55 ft | 28 kts | 193° |
| 2026-05-04 16:43 | 23.38432 | 113.28745 | 58 ft | 27 kts | 193° |
| 2026-05-04 16:43 | 23.38249 | 113.28695 | 55 ft | 27 kts | 194° |
| 2026-05-04 16:44 | 23.37674 | 113.28499 | 56 ft | 10 kts | 274° |
| 2026-05-04 16:45 | 23.37752 | 113.28370 | 54 ft | 10 kts | 16° |
| 2026-05-04 16:46 | 23.38773 | 113.28644 | 55 ft | 137 kts | 14° |
| 2026-05-04 16:46 | 23.41040 | 113.29266 | 710 ft | 176 kts | 15° |
| 2026-05-04 16:47 | 23.43499 | 113.29868 | 1556 ft | 197 kts | 6° |
| 2026-05-04 16:47 | 23.46474 | 113.29160 | 2290 ft | 241 kts | 338° |
| 2026-05-04 16:48 | 23.51307 | 113.27064 | 4756 ft | 254 kts | 338° |
| 2026-05-04 16:48 | 23.52965 | 113.26361 | 5630 ft | 257 kts | 340° |
| 2026-05-04 16:49 | 23.56584 | 113.25180 | 6955 ft | 281 kts | 341° |
| 2026-05-04 16:49 | 23.60012 | 113.23223 | 8583 ft | 279 kts | 313° |
| 2026-05-04 16:50 | 23.62604 | 113.20076 | 10314 ft | 282 kts | 305° |
| 2026-05-04 16:50 | 23.63488 | 113.15905 | 10790 ft | 315 kts | 256° |
| 2026-05-04 16:51 | 23.61649 | 113.11261 | 11452 ft | 347 kts | 240° |
| 2026-05-04 16:51 | 23.60222 | 113.09121 | 12133 ft | 352 kts | 230° |
| 2026-05-04 16:51 | 23.56025 | 113.06300 | 13480 ft | 370 kts | 198° |
| 2026-05-04 16:52 | 23.50785 | 113.06617 | 14660 ft | 396 kts | 166° |
| 2026-05-04 16:52 | 23.48166 | 113.07585 | 15192 ft | 396 kts | 172° |
| 2026-05-04 16:53 | 23.42717 | 113.08000 | 16239 ft | 394 kts | 186° |
| 2026-05-04 16:53 | 23.34365 | 113.07990 | 17798 ft | 406 kts | 185° |
| 2026-05-04 16:54 | 23.31526 | 113.08008 | 18298 ft | 410 kts | 185° |
| 2026-05-04 16:55 | 23.20138 | 113.10817 | 20005 ft | 436 kts | 163° |
| 2026-05-04 16:55 | 23.14513 | 113.13381 | 20836 ft | 441 kts | 163° |
| 2026-05-04 16:56 | 23.08821 | 113.15967 | 21620 ft | 446 kts | 163° |
| 2026-05-04 16:56 | 23.00157 | 113.19818 | 22721 ft | 450 kts | 166° |
| 2026-05-04 16:57 | 22.97196 | 113.20929 | 23065 ft | 451 kts | 168° |
| 2026-05-04 16:57 | 22.91176 | 113.22929 | 23680 ft | 454 kts | 169° |
| 2026-05-04 16:58 | 22.82104 | 113.25925 | 24498 ft | 459 kts | 169° |
| 2026-05-04 16:58 | 22.79055 | 113.26980 | 24763 ft | 461 kts | 168° |
| 2026-05-04 16:59 | 22.72920 | 113.29130 | 25280 ft | 465 kts | 168° |
| 2026-05-04 17:00 | 22.60515 | 113.33440 | 26229 ft | 471 kts | 169° |
| 2026-05-04 17:00 | 22.51093 | 113.36697 | 26649 ft | 477 kts | 169° |
| 2026-05-04 17:01 | 22.44746 | 113.38887 | 26644 ft | 479 kts | 169° |
| 2026-05-04 17:01 | 22.38761 | 113.40950 | 26643 ft | 479 kts | 169° |
| 2026-05-04 17:02 | 22.32288 | 113.43134 | 26636 ft | 480 kts | 173° |
| 2026-05-04 17:02 | 22.25856 | 113.43043 | 26636 ft | 462 kts | 201° |
| 2026-05-04 17:03 | 22.22943 | 113.41665 | 26644 ft | 455 kts | 216° |
| 2026-05-04 17:03 | 22.20503 | 113.39539 | 26636 ft | 449 kts | 230° |
| 2026-05-04 17:03 | 22.17389 | 113.33789 | 26647 ft | 446 kts | 249° |
| 2026-05-04 17:04 | 22.15079 | 113.27562 | 26642 ft | 448 kts | 249° |
| 2026-05-04 17:04 | 22.12731 | 113.21334 | 26643 ft | 449 kts | 248° |
| 2026-05-04 17:05 | 22.10184 | 113.15183 | 26633 ft | 450 kts | 246° |
| 2026-05-04 17:05 | 22.07562 | 113.09054 | 26626 ft | 450 kts | 246° |
| 2026-05-04 17:06 | 22.04974 | 113.02924 | 26620 ft | 449 kts | 247° |
| 2026-05-04 17:06 | 22.03693 | 112.99851 | 26614 ft | 449 kts | 247° |
| 2026-05-04 17:07 | 22.01240 | 112.93681 | 26614 ft | 451 kts | 248° |
| 2026-05-04 17:07 | 22.00431 | 112.91566 | 26612 ft | 452 kts | 249° |
| 2026-05-04 17:07 | 21.98850 | 112.87410 | 26613 ft | 453 kts | 249° |
| 2026-05-04 17:07 | 21.97648 | 112.84273 | 26613 ft | 453 kts | 248° |
| 2026-05-04 17:08 | 21.96435 | 112.81139 | 26613 ft | 453 kts | 248° |
| 2026-05-04 17:08 | 21.93943 | 112.74904 | 26618 ft | 453 kts | 248° |
| 2026-05-04 17:08 | 21.92678 | 112.71798 | 26615 ft | 452 kts | 248° |
| 2026-05-04 17:09 | 21.91413 | 112.68699 | 26619 ft | 452 kts | 248° |
| 2026-05-04 17:09 | 21.90153 | 112.65602 | 26615 ft | 452 kts | 248° |
| 2026-05-04 17:09 | 21.88890 | 112.62497 | 26614 ft | 452 kts | 248° |
| 2026-05-04 17:10 | 21.86393 | 112.56336 | 26613 ft | 452 kts | 248° |
| 2026-05-04 17:10 | 21.82670 | 112.47014 | 26613 ft | 452 kts | 248° |
| 2026-05-04 17:11 | 21.81443 | 112.43901 | 26620 ft | 452 kts | 248° |
| 2026-05-04 17:11 | 21.80217 | 112.40788 | 26613 ft | 453 kts | 248° |
| 2026-05-04 17:11 | 21.77748 | 112.34549 | 26611 ft | 454 kts | 248° |
| 2026-05-04 17:12 | 21.76506 | 112.31427 | 26608 ft | 454 kts | 248° |
| 2026-05-04 17:12 | 21.74013 | 112.25179 | 26607 ft | 454 kts | 248° |
| 2026-05-04 17:13 | 21.70269 | 112.15814 | 26615 ft | 454 kts | 248° |
| 2026-05-04 17:14 | 21.66535 | 112.06449 | 26610 ft | 454 kts | 248° |
| 2026-05-04 17:14 | 21.65291 | 112.03335 | 26612 ft | 453 kts | 248° |
| 2026-05-04 17:14 | 21.62801 | 111.97114 | 26639 ft | 453 kts | 248° |
| 2026-05-04 17:15 | 21.61554 | 111.94004 | 26644 ft | 453 kts | 248° |
| 2026-05-04 17:15 | 21.59052 | 111.87789 | 26636 ft | 454 kts | 248° |
| 2026-05-04 17:16 | 21.56209 | 111.81779 | 26644 ft | 458 kts | 237° |
| 2026-05-04 17:16 | 21.50017 | 111.73874 | 26643 ft | 462 kts | 233° |
| 2026-05-04 17:17 | 21.47935 | 111.71252 | 26625 ft | 462 kts | 233° |
| 2026-05-04 17:17 | 21.41676 | 111.63380 | 26640 ft | 462 kts | 232° |
| 2026-05-04 17:18 | 21.39588 | 111.60760 | 26623 ft | 462 kts | 233° |
| 2026-05-04 17:18 | 21.35414 | 111.55522 | 26636 ft | 462 kts | 232° |
| 2026-05-04 17:19 | 21.31232 | 111.50279 | 26636 ft | 463 kts | 232° |
| 2026-05-04 17:19 | 21.27044 | 111.45026 | 26632 ft | 464 kts | 232° |
| 2026-05-04 17:20 | 21.22847 | 111.39774 | 26633 ft | 464 kts | 232° |
| 2026-05-04 17:20 | 21.18640 | 111.34516 | 26632 ft | 464 kts | 232° |
| 2026-05-04 17:20 | 21.16541 | 111.31890 | 26627 ft | 464 kts | 232° |
| 2026-05-04 17:21 | 21.12332 | 111.26630 | 26619 ft | 465 kts | 232° |
| 2026-05-04 17:21 | 21.08116 | 111.21375 | 26597 ft | 465 kts | 232° |
| 2026-05-04 17:22 | 21.06006 | 111.18749 | 26578 ft | 465 kts | 232° |
| 2026-05-04 17:22 | 21.03896 | 111.16125 | 26585 ft | 466 kts | 232° |
| 2026-05-04 17:23 | 20.97542 | 111.08241 | 26622 ft | 467 kts | 230° |
| 2026-05-04 17:23 | 20.95115 | 111.05914 | 26622 ft | 472 kts | 220° |
| 2026-05-04 17:23 | 20.89261 | 111.02598 | 26622 ft | 480 kts | 208° |
| 2026-05-04 17:24 | 20.86204 | 111.01158 | 26621 ft | 480 kts | 208° |
| 2026-05-04 17:24 | 20.77032 | 110.96824 | 26622 ft | 480 kts | 208° |
| 2026-05-04 17:25 | 20.73976 | 110.95373 | 26610 ft | 481 kts | 208° |
| 2026-05-04 17:25 | 20.68896 | 110.92964 | 26585 ft | 481 kts | 208° |
| 2026-05-04 17:26 | 20.61779 | 110.89591 | 26584 ft | 481 kts | 208° |
| 2026-05-04 17:26 | 20.52857 | 110.85374 | 26621 ft | 461 kts | 207° |
| 2026-05-04 17:27 | 20.47644 | 110.83838 | 26614 ft | 471 kts | 192° |
| 2026-05-04 17:27 | 20.41078 | 110.83299 | 26619 ft | 473 kts | 188° |
| 2026-05-04 17:28 | 20.34503 | 110.82801 | 26621 ft | 474 kts | 189° |
| 2026-05-04 17:29 | 20.24704 | 110.82004 | 26633 ft | 470 kts | 192° |
| 2026-05-04 17:29 | 20.17311 | 110.76478 | 26615 ft | 437 kts | 247° |
| 2026-05-04 17:30 | 20.15096 | 110.67136 | 26610 ft | 435 kts | 258° |
| 2026-05-04 17:31 | 20.13844 | 110.60836 | 26605 ft | 435 kts | 259° |
| 2026-05-04 17:31 | 20.12064 | 110.51871 | 26356 ft | 388 kts | 259° |
| 2026-05-04 17:32 | 20.10966 | 110.46438 | 25721 ft | 372 kts | 259° |
| 2026-05-04 17:33 | 20.09352 | 110.38457 | 24357 ft | 364 kts | 259° |
| 2026-05-04 17:33 | 20.08817 | 110.35829 | 23907 ft | 362 kts | 258° |
| 2026-05-04 17:34 | 20.07275 | 110.28079 | 22477 ft | 352 kts | 264° |
| 2026-05-04 17:34 | 20.07107 | 110.25436 | 21441 ft | 365 kts | 267° |
| 2026-05-04 17:35 | 20.06820 | 110.17306 | 19592 ft | 347 kts | 267° |
| 2026-05-04 17:35 | 20.06679 | 110.12372 | 18692 ft | 321 kts | 267° |
| 2026-05-04 17:35 | 20.06660 | 110.10036 | 18241 ft | 311 kts | 275° |
| 2026-05-04 17:36 | 20.07068 | 110.07807 | 17732 ft | 303 kts | 282° |
| 2026-05-04 17:36 | 20.07572 | 110.05658 | 17229 ft | 296 kts | 282° |
| 2026-05-04 17:36 | 20.08072 | 110.03558 | 16731 ft | 289 kts | 282° |
| 2026-05-04 17:36 | 20.08559 | 110.01503 | 16245 ft | 284 kts | 282° |
| 2026-05-04 17:37 | 20.09027 | 109.99510 | 15766 ft | 279 kts | 282° |
| 2026-05-04 17:37 | 20.09157 | 109.97493 | 15296 ft | 271 kts | 258° |
| 2026-05-04 17:37 | 20.08416 | 109.95682 | 14831 ft | 268 kts | 232° |
| 2026-05-04 17:37 | 20.06958 | 109.94470 | 14364 ft | 270 kts | 205° |
| 2026-05-04 17:38 | 20.05114 | 109.94134 | 13906 ft | 273 kts | 177° |
| 2026-05-04 17:38 | 20.03310 | 109.94756 | 13405 ft | 277 kts | 150° |
| 2026-05-04 17:38 | 20.01899 | 109.96140 | 12902 ft | 278 kts | 125° |
| 2026-05-04 17:38 | 20.01068 | 109.97988 | 12404 ft | 277 kts | 112° |
| 2026-05-04 17:39 | 19.99681 | 110.01774 | 11435 ft | 272 kts | 112° |
| 2026-05-04 17:39 | 19.98992 | 110.03647 | 10888 ft | 273 kts | 112° |
| 2026-05-04 17:39 | 19.98297 | 110.05535 | 10306 ft | 275 kts | 112° |
| 2026-05-04 17:40 | 19.97600 | 110.07434 | 9711 ft | 276 kts | 112° |
| 2026-05-04 17:40 | 19.96900 | 110.09337 | 9079 ft | 277 kts | 112° |
| 2026-05-04 17:40 | 19.96197 | 110.11241 | 8457 ft | 276 kts | 113° |
| 2026-05-04 17:40 | 19.95497 | 110.13142 | 7848 ft | 275 kts | 112° |
| 2026-05-04 17:41 | 19.94987 | 110.15087 | 7246 ft | 273 kts | 93° |
| 2026-05-04 17:41 | 19.95262 | 110.17063 | 6665 ft | 271 kts | 68° |
| 2026-05-04 17:41 | 19.96279 | 110.18724 | 6056 ft | 268 kts | 43° |
| 2026-05-04 17:41 | 19.97815 | 110.19795 | 5443 ft | 264 kts | 19° |
| 2026-05-04 17:42 | 19.99603 | 110.20123 | 4842 ft | 264 kts | 355° |
| 2026-05-04 17:42 | 20.01394 | 110.19659 | 4223 ft | 269 kts | 332° |
| 2026-05-04 17:42 | 20.02877 | 110.18446 | 3610 ft | 272 kts | 308° |
| 2026-05-04 17:42 | 20.03756 | 110.16671 | 3091 ft | 272 kts | 282° |
| 2026-05-04 17:43 | 20.03773 | 110.14746 | 2961 ft | 254 kts | 254° |
| 2026-05-04 17:43 | 20.03087 | 110.13141 | 2955 ft | 232 kts | 230° |
| 2026-05-04 17:43 | 20.01975 | 110.12015 | 2959 ft | 212 kts | 210° |
| 2026-05-04 17:43 | 20.00666 | 110.11424 | 2964 ft | 199 kts | 191° |
| 2026-05-04 17:44 | 19.99311 | 110.11333 | 2968 ft | 195 kts | 172° |
| 2026-05-04 17:44 | 19.98009 | 110.11713 | 2969 ft | 193 kts | 154° |
| 2026-05-04 17:44 | 19.96889 | 110.12499 | 2963 ft | 195 kts | 142° |
| 2026-05-04 17:44 | 19.95905 | 110.13476 | 2964 ft | 193 kts | 126° |
| 2026-05-04 17:45 | 19.95336 | 110.14763 | 2968 ft | 194 kts | 103° |
| 2026-05-04 17:45 | 19.95247 | 110.16196 | 2968 ft | 195 kts | 90° |
| 2026-05-04 17:45 | 19.95258 | 110.17642 | 2969 ft | 196 kts | 90° |
| 2026-05-04 17:45 | 19.95268 | 110.19093 | 2972 ft | 197 kts | 90° |
| 2026-05-04 17:46 | 19.95275 | 110.20543 | 2978 ft | 196 kts | 91° |
| 2026-05-04 17:46 | 19.95282 | 110.21990 | 2976 ft | 197 kts | 91° |
| 2026-05-04 17:46 | 19.95288 | 110.23409 | 3004 ft | 184 kts | 91° |
| 2026-05-04 17:46 | 19.95295 | 110.24703 | 2976 ft | 167 kts | 92° |
| 2026-05-04 17:47 | 19.95300 | 110.25878 | 2964 ft | 153 kts | 92° |
| 2026-05-04 17:47 | 19.95304 | 110.26981 | 2966 ft | 147 kts | 91° |
| 2026-05-04 17:47 | 19.95308 | 110.28066 | 2953 ft | 147 kts | 92° |
| 2026-05-04 17:47 | 19.95313 | 110.29148 | 2831 ft | 146 kts | 91° |
| 2026-05-04 17:48 | 19.95317 | 110.30220 | 2678 ft | 144 kts | 91° |
| 2026-05-04 17:48 | 19.95321 | 110.31280 | 2498 ft | 142 kts | 91° |
| 2026-05-04 17:48 | 19.95325 | 110.32314 | 2328 ft | 141 kts | 91° |
| 2026-05-04 17:48 | 19.95329 | 110.33352 | 2140 ft | 139 kts | 91° |
| 2026-05-04 17:49 | 19.95333 | 110.34357 | 1980 ft | 135 kts | 90° |
| 2026-05-04 17:49 | 19.95337 | 110.35345 | 1807 ft | 133 kts | 90° |
| 2026-05-04 17:49 | 19.95341 | 110.36325 | 1628 ft | 133 kts | 89° |
| 2026-05-04 17:49 | 19.95344 | 110.37311 | 1450 ft | 133 kts | 89° |
| 2026-05-04 17:50 | 19.95348 | 110.38291 | 1280 ft | 132 kts | 88° |
| 2026-05-04 17:50 | 19.95351 | 110.39268 | 1103 ft | 132 kts | 89° |
| 2026-05-04 17:50 | 19.95355 | 110.40247 | 930 ft | 134 kts | 89° |
| 2026-05-04 17:50 | 19.95358 | 110.41237 | 770 ft | 134 kts | 88° |
| 2026-05-04 17:51 | 19.95361 | 110.42236 | 609 ft | 135 kts | 88° |
| 2026-05-04 17:51 | 19.95377 | 110.43239 | 450 ft | 135 kts | 86° |
| 2026-05-04 17:51 | 19.95377 | 110.44233 | 233 ft | 135 kts | 89° |
| 2026-05-04 17:51 | 19.95371 | 110.45226 | 67 ft | 133 kts | 87° |
| 2026-05-04 17:52 | 19.95377 | 110.46100 | 58 ft | 95 kts | 89° |
| 2026-05-04 17:52 | 19.95378 | 110.46617 | 57 ft | 45 kts | 90° |
| 2026-05-04 17:52 | 19.95378 | 110.46886 | 58 ft | 33 kts | 94° |
| 2026-05-04 17:52 | 19.95315 | 110.47066 | 58 ft | 22 kts | 118° |
| 2026-05-04 17:53 | 19.95240 | 110.47134 | 59 ft | 10 kts | 200° |
| 2026-05-04 17:53 | 19.95204 | 110.47076 | 60 ft | 9 kts | 257° |
| 2026-05-04 17:53 | 19.95208 | 110.47010 | 60 ft | 9 kts | 277° |
| 2026-05-04 17:53 | 19.95214 | 110.46948 | 56 ft | 8 kts | 276° |
| 2026-05-04 17:54 | 19.95213 | 110.46890 | 59 ft | 7 kts | 265° |
| 2026-05-04 17:54 | 19.95209 | 110.46837 | 54 ft | 7 kts | 265° |
| 2026-05-04 17:54 | 19.95206 | 110.46787 | 59 ft | 6 kts | 269° |
| 2026-05-04 17:54 | 19.95207 | 110.46719 | 59 ft | 12 kts | 270° |
| 2026-05-04 17:55 | 19.95207 | 110.46602 | 58 ft | 17 kts | 270° |
| 2026-05-04 17:55 | 19.95206 | 110.46483 | 57 ft | 15 kts | 265° |
| 2026-05-04 17:55 | 19.95163 | 110.46396 | 53 ft | 12 kts | 234° |
| 2026-05-04 17:55 | 19.95111 | 110.46342 | 55 ft | 10 kts | 188° |
| 2026-05-04 17:56 | 19.95103 | 110.46341 | 51 ft | 0 kts | 186° |